createdAt,value
2017-03-04T00:04:09.529Z,90.85
2017-03-04T00:09:06.889Z,91.33
2017-03-04T00:14:03.594Z,91.61
2017-03-04T00:19:00.716Z,91.14
2017-03-04T00:23:57.166Z,90.14
2017-03-04T00:28:53.768Z,90.52
2017-03-04T00:33:50.476Z,90.42
2017-03-04T00:38:47.754Z,90.61
2017-03-04T00:43:45.009Z,90.42
2017-03-04T00:48:41.976Z,90.90
2017-03-04T00:53:38.687Z,89.47
2017-03-04T00:58:35.474Z,90.80
2017-03-04T01:03:32.088Z,90.42
2017-03-04T01:08:28.697Z,89.67
2017-03-04T01:13:25.368Z,90.61
2017-03-04T01:18:22.229Z,91.56
2017-03-04T01:23:19.369Z,92.61
2017-03-04T01:28:15.903Z,91.75
2017-03-04T01:33:12.349Z,92.23
2017-03-04T01:38:08.969Z,91.56
2017-03-04T01:43:06.071Z,92.13
2017-03-04T01:48:02.638Z,93.08
2017-03-04T01:53:00.450Z,93.32
2017-03-04T01:57:56.940Z,94.18
2017-03-04T02:02:53.901Z,94.56
2017-03-04T02:07:50.387Z,95.31
2017-03-04T02:12:46.652Z,95.41
2017-03-04T02:17:43.285Z,96.93
2017-03-04T02:22:40.264Z,97.22
2017-03-04T02:27:36.484Z,98.11
2017-03-04T02:32:32.572Z,97.60
2017-03-04T02:37:29.161Z,98.30
2017-03-04T02:42:25.427Z,97.69
2017-03-04T02:47:21.991Z,97.41
2017-03-04T02:52:18.834Z,96.26
2017-03-04T02:57:15.610Z,95.60
2017-03-04T03:02:13.108Z,95.41
2017-03-04T03:07:09.819Z,93.84
2017-03-04T03:12:06.679Z,94.03
2017-03-04T03:17:03.216Z,93.27
2017-03-04T03:22:00.907Z,92.71
2017-03-04T03:26:57.542Z,92.71
2017-03-04T03:31:55.066Z,92.04
2017-03-04T03:36:51.790Z,92.23
2017-03-04T03:41:49.355Z,91.75
2017-03-04T03:46:45.094Z,91.47
2017-03-04T03:51:41.674Z,91.85
2017-03-04T03:56:38.314Z,93.18
2017-03-04T04:01:35.061Z,92.51
2017-03-04T04:06:31.475Z,93.08
2017-03-04T04:11:29.275Z,93.65
2017-03-04T04:16:25.763Z,90.85
2017-03-04T04:21:22.393Z,90.37
2017-03-04T04:26:19.437Z,90.28
2017-03-04T04:31:16.009Z,91.13
2017-03-04T04:36:12.787Z,90.85
2017-03-04T04:41:10.340Z,90.28
2017-03-04T04:46:06.787Z,90.66
2017-03-04T04:51:03.481Z,90.37
2017-03-04T04:56:00.237Z,91.42
2017-03-04T05:00:57.200Z,91.23
2017-03-04T05:05:53.576Z,91.61
2017-03-04T05:10:50.356Z,91.61
2017-03-04T05:15:47.243Z,91.71
2017-03-04T05:20:43.979Z,91.80
2017-03-04T05:25:40.739Z,92.46
2017-03-04T05:30:37.578Z,91.80
2017-03-04T05:35:34.419Z,92.18
2017-03-04T05:40:30.988Z,92.51
2017-03-04T05:45:27.417Z,92.37
2017-03-04T05:50:24.020Z,91.89
2017-03-04T05:55:21.020Z,91.99
2017-03-04T06:00:18.441Z,91.61
2017-03-04T06:05:14.948Z,91.52
2017-03-04T06:10:11.386Z,91.33
2017-03-04T06:15:08.017Z,91.42
2017-03-04T06:20:05.653Z,91.33
2017-03-04T06:25:02.329Z,92.08
2017-03-04T06:29:58.981Z,91.80
2017-03-04T06:34:55.755Z,91.80
2017-03-04T06:39:52.430Z,91.99
2017-03-04T06:44:49.312Z,92.18
2017-03-04T06:49:46.397Z,91.99
2017-03-04T06:54:43.069Z,91.80
2017-03-04T06:59:39.416Z,91.66
2017-03-04T07:04:36.479Z,91.71
2017-03-04T07:09:33.501Z,91.85
2017-03-04T07:14:30.300Z,91.47
2017-03-04T07:19:27.037Z,90.80
2017-03-04T07:24:24.120Z,90.89
2017-03-04T07:29:20.878Z,90.61
2017-03-04T07:34:18.994Z,91.22
2017-03-04T07:39:15.647Z,90.28
2017-03-04T07:44:12.262Z,89.61
2017-03-04T07:49:09.045Z,89.80
2017-03-04T07:54:06.398Z,89.89
2017-03-04T07:59:03.565Z,89.94
2017-03-04T08:04:00.627Z,89.56
2017-03-04T08:08:57.691Z,87.85
2017-03-04T08:13:54.891Z,85.80
2017-03-04T08:18:52.108Z,85.13
2017-03-04T08:23:50.011Z,84.79
2017-03-04T08:28:47.167Z,84.03
2017-03-04T08:33:44.753Z,83.84
2017-03-04T08:38:41.699Z,83.65
2017-03-04T08:43:39.187Z,83.12
2017-03-04T08:48:35.634Z,83.21
2017-03-04T08:53:32.726Z,82.26
2017-03-04T08:58:29.935Z,82.20
2017-03-04T09:03:26.500Z,80.39
2017-03-04T09:08:23.561Z,79.91
2017-03-04T09:13:20.211Z,79.72
2017-03-04T09:18:18.585Z,78.52
2017-03-04T09:23:14.770Z,78.62
2017-03-04T09:28:11.876Z,78.14
2017-03-04T09:33:08.796Z,78.33
2017-03-04T09:38:06.070Z,78.23
2017-03-04T09:43:03.334Z,77.70
2017-03-04T09:48:00.397Z,76.75
2017-03-04T09:52:57.517Z,74.98
2017-03-04T09:57:54.898Z,73.35
2017-03-04T10:02:51.845Z,73.48
2017-03-04T10:07:48.687Z,71.95
2017-03-04T10:12:45.613Z,71.03
2017-03-04T10:17:42.470Z,70.56
2017-03-04T10:22:39.333Z,70.90
2017-03-04T10:27:36.314Z,70.46
2017-03-04T10:32:33.136Z,68.93
2017-03-04T10:37:30.476Z,68.84
2017-03-04T10:42:27.532Z,69.02
2017-03-04T10:47:24.124Z,69.21
2017-03-04T10:52:20.559Z,68.45
2017-03-04T10:57:16.796Z,68.64
2017-03-04T11:02:13.662Z,68.77
2017-03-04T11:07:10.813Z,66.70
2017-03-04T11:12:07.402Z,65.36
2017-03-04T11:17:04.243Z,67.43
2017-03-04T11:22:01.203Z,67.34
2017-03-04T11:26:57.605Z,66.76
2017-03-04T11:31:54.263Z,67.88
2017-03-04T11:36:50.800Z,68.45
2017-03-04T11:41:47.327Z,67.82
2017-03-04T11:46:45.151Z,69.35
2017-03-04T11:51:41.657Z,68.49
2017-03-04T11:56:41.366Z,68.20
2017-03-04T12:01:37.906Z,66.61
2017-03-04T12:06:35.079Z,66.03
2017-03-04T12:11:31.915Z,66.99
2017-03-04T12:16:28.625Z,66.35
2017-03-04T12:21:26.672Z,65.68
2017-03-04T12:26:23.683Z,63.22
2017-03-04T12:31:21.214Z,60.19
2017-03-04T12:36:18.708Z,59.16
2017-03-04T12:41:15.361Z,56.67
2017-03-04T12:46:12.504Z,56.22
2017-03-04T12:51:09.023Z,56.31
2017-03-04T12:56:06.935Z,57.43
2017-03-04T13:01:04.808Z,58.65
2017-03-04T13:06:01.755Z,59.90
2017-03-04T13:10:58.072Z,61.02
2017-03-04T13:15:54.668Z,61.88
2017-03-04T13:20:51.203Z,61.60
2017-03-04T13:25:47.912Z,62.04
2017-03-04T13:30:44.664Z,63.00
2017-03-04T13:35:42.736Z,63.48
2017-03-04T13:40:39.034Z,63.19
2017-03-04T13:45:35.722Z,62.90
2017-03-04T13:50:32.656Z,62.23
2017-03-04T13:55:30.439Z,62.14
2017-03-04T14:00:27.277Z,62.33
2017-03-04T14:05:25.062Z,61.69
2017-03-04T14:10:21.416Z,60.54
2017-03-04T14:15:19.667Z,61.50
2017-03-04T14:20:16.172Z,62.71
2017-03-04T14:25:12.963Z,62.90
2017-03-04T14:30:09.439Z,64.63
2017-03-04T14:35:05.925Z,65.08
2017-03-04T14:40:02.607Z,65.45
2017-03-04T14:44:59.272Z,65.65
2017-03-04T14:49:56.369Z,64.79
2017-03-04T14:54:52.622Z,64.15
2017-03-04T14:59:49.237Z,64.88
2017-03-04T15:04:45.289Z,65.55
2017-03-04T15:09:41.763Z,65.81
2017-03-04T15:14:39.602Z,66.19
2017-03-04T15:19:35.689Z,66.96
2017-03-04T15:24:31.917Z,66.76
2017-03-04T15:29:28.314Z,66.67
2017-03-04T15:34:24.616Z,66.96
2017-03-04T15:39:21.195Z,68.77
2017-03-04T15:44:17.911Z,69.41
2017-03-04T15:49:15.496Z,69.89
2017-03-04T15:54:11.620Z,71.61
2017-03-04T15:59:09.268Z,71.51
2017-03-04T16:04:05.613Z,71.95
2017-03-04T16:09:01.894Z,72.14
2017-03-04T16:13:59.330Z,72.81
2017-03-04T16:18:56.148Z,73.48
2017-03-04T16:23:53.885Z,74.40
2017-03-04T16:28:50.258Z,74.40
2017-03-04T16:33:47.206Z,75.26
2017-03-04T16:38:43.653Z,76.40
2017-03-04T16:43:40.630Z,76.56
2017-03-04T16:48:37.357Z,77.80
2017-03-04T16:53:34.244Z,78.18
2017-03-04T16:58:30.711Z,78.62
2017-03-04T17:03:27.438Z,79.28
2017-03-04T17:08:26.728Z,79.14
2017-03-04T17:13:24.087Z,79.10
2017-03-04T17:18:20.281Z,80.05
2017-03-04T17:23:17.540Z,80.77
2017-03-04T17:28:15.292Z,81.63
2017-03-04T17:33:12.427Z,81.35
2017-03-04T17:38:08.911Z,82.78
2017-03-04T17:43:05.367Z,83.73
2017-03-04T17:48:02.129Z,83.59
2017-03-04T17:52:59.297Z,85.02
2017-03-04T17:57:56.151Z,86.16
2017-03-04T18:02:52.705Z,85.60
2017-03-04T18:07:49.335Z,86.65
2017-03-04T18:12:46.238Z,86.26
2017-03-04T18:17:44.222Z,86.16
2017-03-04T18:22:40.649Z,85.73
2017-03-04T18:27:37.413Z,86.45
2017-03-04T18:32:35.450Z,86.07
2017-03-04T18:37:32.470Z,87.21
2017-03-04T18:42:29.057Z,87.93
2017-03-04T18:47:25.768Z,88.41
2017-03-04T18:52:22.881Z,89.26
2017-03-04T18:57:19.647Z,90.89
2017-03-04T19:02:16.955Z,90.79
2017-03-04T19:07:14.151Z,90.79
2017-03-04T19:12:10.692Z,90.70
2017-03-04T19:17:08.190Z,89.75
2017-03-04T19:22:05.238Z,89.55
2017-03-04T19:27:01.975Z,89.31
2017-03-04T19:31:58.825Z,89.12
2017-03-04T19:36:58.291Z,88.41
2017-03-04T19:41:54.917Z,89.07
2017-03-04T19:46:52.282Z,89.46
2017-03-04T19:51:49.104Z,90.31
2017-03-04T19:56:45.763Z,90.60
2017-03-04T20:01:42.844Z,91.08
2017-03-04T20:06:40.080Z,90.70
2017-03-04T20:11:36.560Z,89.94
2017-03-04T20:16:33.305Z,90.70
2017-03-04T20:21:32.219Z,90.12
2017-03-04T20:26:31.744Z,89.55
2017-03-04T20:31:27.993Z,89.03
2017-03-04T20:36:24.426Z,90.36
2017-03-04T20:41:21.016Z,93.41
2017-03-04T20:46:17.368Z,97.55
2017-03-04T20:51:13.971Z,99.99
2017-03-04T20:56:09.951Z,99.99
2017-03-04T21:01:06.465Z,99.99
2017-03-04T21:06:02.937Z,99.99
2017-03-04T21:10:59.011Z,99.99
2017-03-04T21:15:55.849Z,99.99
2017-03-04T21:20:52.048Z,99.99
2017-03-04T21:25:49.485Z,99.99
2017-03-04T21:30:45.846Z,99.99
2017-03-04T21:35:42.461Z,99.99
2017-03-04T21:40:38.784Z,99.99
2017-03-04T21:45:35.309Z,99.99
2017-03-04T21:50:31.970Z,99.99
2017-03-04T21:55:28.258Z,99.99
2017-03-04T22:00:24.810Z,99.99
2017-03-04T22:05:22.500Z,99.99
2017-03-04T22:10:18.871Z,99.99
2017-03-04T22:15:15.765Z,99.99
2017-03-04T22:20:12.889Z,99.99
2017-03-04T22:25:10.787Z,99.99
2017-03-04T22:30:06.788Z,99.99
2017-03-04T22:35:03.303Z,99.99
2017-03-04T22:39:59.725Z,99.99
2017-03-04T22:44:56.808Z,99.99
2017-03-04T22:49:53.373Z,99.99
2017-03-04T22:54:50.004Z,99.99
2017-03-04T22:59:46.184Z,99.99
2017-03-04T23:04:42.925Z,99.99
2017-03-04T23:09:39.397Z,99.99
2017-03-04T23:14:35.501Z,99.99
2017-03-04T23:19:32.424Z,99.99
2017-03-04T23:24:29.375Z,99.99
2017-03-04T23:29:25.801Z,99.99
2017-03-04T23:34:22.105Z,99.99
2017-03-04T23:39:18.622Z,99.99
2017-03-04T23:44:15.051Z,99.99
2017-03-04T23:49:11.586Z,99.99
2017-03-04T23:54:07.997Z,99.99
2017-03-04T23:59:04.647Z,99.99
